Hovedside
METAR-TAF:

METAR-TAF

Lufthavner :

Khartoum, Sudan

breddegrad: 15-36N, lengdegrad: 032-33E, høyde over havet: 382 m

Gjeldene værobservasjon

Denne rapporten ble laget for 23 minutter siden, klokken 17:30 UTC
Vind 8 kt fra Nord-nordvest
Temperatur 25°C
Luftfuktighet 18%
Trykk 1018 hPa
Sikt 10 km eller mer
ingen skyer under 1500 m og ingen bygeskyer

METAR: HSSS 121730Z 33008KT CAVOK 25/M01 Q1018 NOSIG

Tid: 20:53 (17:53 UTC)

Varsel

Denne rapporten ble laget for 53 minutter siden, klokken 17:00 UTC
Varsel gyldig fra 12. klokken 18 UTC til 13. klokken 24 UTC
Vind 10 kt fra Nord-nordvest med vindkast opp mot 20 kt
Sikt 10 km eller mer
ingen skyer under 1500 m og ingen bygeskyer
Midlertidig
fra 13. klokken 03 UTC til 13. klokken 09 UTC
Sikt: 6000 m

TAF: HSSS 121700Z 1218/1324 34010G20KT CAVOK TEMPO 1303/1309 6000

Værobservasjoner og værvarsel for over 4000 flyplasser (METAR- og TAF-rapporter).

Tilgjengelige stasjoner er representert av de røde og gule prikkene på kartet.

Hold musepekeren over prikken for å se navnet på stasjonen.

Klikk så for å se værobservasjoner og -varsler.

For å forandre kartet kan du klikke på den grønne knappen med svart kryss for å zoome inn, på den grønne knappen med strek for å zoome ut, eller på de grønne pilene for å se tilstøtende kart.


METAR-TAF: